FNLU/LAD METAR and TAF weather

Enter ICAO airport designator
Station Type Date Time Source
FNLU METAR 2024/02/26 19:00 UTC NOAA

FNLU 261900Z 18007KT 150V210 9999 FEW020 SCT070 28/25 Q1009 NOSIG


Station Type Date Time Source
FNLU Decoded METAR 2024/02/26 19:00 UTC NOAA

Luanda, Angola (FNLU) 08-51S 013-14E 70M
Feb 26, 2024 - 02:00 PM EST / 2024.02.26 1900 UTC
Wind: from the S (180 degrees) at 8 MPH (7 KT) (direction variable):0
Visibility: greater than 7 mile(s):0
Sky conditions: partly cloudy
Temperature: 82 F (28 C)
Dew Point: 77 F (25 C)
Relative Humidity: 83%
Pressure (altimeter): 29.80 in. Hg (1009 hPa)
ob: FNLU 261900Z 18007KT 150V210 9999 FEW020 SCT070 28/25 Q1009 NOSIG
cycle: 19

Station Type Date Time Source
FNLU TAF 2024/02/26 18:51 UTC NOAA